sensor_id;sensor_type;location;lat;lon;timestamp;P1;durP1;ratioP1;P2;durP2;ratioP2
36797;SDS011;22748;8.426;99.512;2023-07-20T00:01:46;12.60;;;4.20;;
36797;SDS011;22748;8.426;99.512;2023-07-20T00:04:24;7.93;;;3.78;;
36797;SDS011;22748;8.426;99.512;2023-07-20T00:06:55;11.63;;;4.18;;
36797;SDS011;22748;8.426;99.512;2023-07-20T00:09:31;18.15;;;6.32;;
36797;SDS011;22748;8.426;99.512;2023-07-20T00:12:08;9.43;;;4.25;;
36797;SDS011;22748;8.426;99.512;2023-07-20T00:14:39;12.93;;;3.60;;
36797;SDS011;22748;8.426;99.512;2023-07-20T00:17:15;8.43;;;3.75;;
36797;SDS011;22748;8.426;99.512;2023-07-20T00:20:00;10.10;;;3.70;;
36797;SDS011;22748;8.426;99.512;2023-07-20T00:22:36;8.15;;;3.67;;
36797;SDS011;22748;8.426;99.512;2023-07-20T00:25:07;7.07;;;3.42;;
36797;SDS011;22748;8.426;99.512;2023-07-20T00:27:44;8.85;;;3.58;;
36797;SDS011;22748;8.426;99.512;2023-07-20T00:30:28;10.82;;;4.18;;
36797;SDS011;22748;8.426;99.512;2023-07-20T00:33:12;6.75;;;3.80;;
36797;SDS011;22748;8.426;99.512;2023-07-20T00:36:03;8.38;;;3.90;;
36797;SDS011;22748;8.426;99.512;2023-07-20T00:38:38;7.10;;;3.25;;
36797;SDS011;22748;8.426;99.512;2023-07-20T00:41:09;7.90;;;4.13;;
36797;SDS011;22748;8.426;99.512;2023-07-20T00:43:46;7.82;;;3.97;;
36797;SDS011;22748;8.426;99.512;2023-07-20T00:46:23;10.05;;;6.13;;
36797;SDS011;22748;8.426;99.512;2023-07-20T00:49:00;15.00;;;9.40;;
36797;SDS011;22748;8.426;99.512;2023-07-20T00:54:40;7.85;;;4.55;;
36797;SDS011;22748;8.426;99.512;2023-07-20T00:57:11;11.25;;;5.47;;
36797;SDS011;22748;8.426;99.512;2023-07-20T00:59:43;9.00;;;5.03;;
36797;SDS011;22748;8.426;99.512;2023-07-20T01:02:16;13.35;;;6.10;;
36797;SDS011;22748;8.426;99.512;2023-07-20T01:04:46;16.17;;;6.93;;
36797;SDS011;22748;8.426;99.512;2023-07-20T01:07:31;6.47;;;4.55;;
36797;SDS011;22748;8.426;99.512;2023-07-20T01:10:12;10.07;;;5.15;;
36797;SDS011;22748;8.426;99.512;2023-07-20T01:12:47;6.13;;;4.82;;
36797;SDS011;22748;8.426;99.512;2023-07-20T01:15:26;11.57;;;3.78;;
36797;SDS011;22748;8.426;99.512;2023-07-20T01:17:57;9.57;;;4.40;;
36797;SDS011;22748;8.426;99.512;2023-07-20T01:20:34;9.07;;;3.35;;
36797;SDS011;22748;8.426;99.512;2023-07-20T01:23:28;6.95;;;3.60;;
36797;SDS011;22748;8.426;99.512;2023-07-20T01:29:43;9.07;;;3.35;;
36797;SDS011;22748;8.426;99.512;2023-07-20T01:32:37;13.27;;;5.03;;
36797;SDS011;22748;8.426;99.512;2023-07-20T01:37:49;11.38;;;7.00;;
36797;SDS011;22748;8.426;99.512;2023-07-20T01:40:21;10.13;;;5.35;;
36797;SDS011;22748;8.426;99.512;2023-07-20T01:42:59;9.40;;;5.28;;
36797;SDS011;22748;8.426;99.512;2023-07-20T01:45:34;9.95;;;5.00;;
36797;SDS011;22748;8.426;99.512;2023-07-20T01:48:18;11.20;;;4.60;;
36797;SDS011;22748;8.426;99.512;2023-07-20T01:50:49;12.35;;;4.07;;
36797;SDS011;22748;8.426;99.512;2023-07-20T01:53:25;10.57;;;3.50;;
36797;SDS011;22748;8.426;99.512;2023-07-20T01:56:02;9.30;;;3.10;;
36797;SDS011;22748;8.426;99.512;2023-07-20T01:58:44;10.30;;;2.95;;
36797;SDS011;22748;8.426;99.512;2023-07-20T02:01:16;7.55;;;3.15;;
36797;SDS011;22748;8.426;99.512;2023-07-20T02:03:49;10.45;;;3.40;;
36797;SDS011;22748;8.426;99.512;2023-07-20T02:06:26;11.10;;;3.72;;
36797;SDS011;22748;8.426;99.512;2023-07-20T02:08:57;12.27;;;3.95;;
36797;SDS011;22748;8.426;99.512;2023-07-20T02:11:35;10.65;;;3.38;;
36797;SDS011;22748;8.426;99.512;2023-07-20T02:14:11;12.30;;;3.38;;
36797;SDS011;22748;8.426;99.512;2023-07-20T02:16:42;9.73;;;3.38;;
36797;SDS011;22748;8.426;99.512;2023-07-20T02:19:29;12.48;;;3.80;;
36797;SDS011;22748;8.426;99.512;2023-07-20T02:22:06;12.48;;;4.38;;
36797;SDS011;22748;8.426;99.512;2023-07-20T02:24:43;17.50;;;4.65;;
36797;SDS011;22748;8.426;99.512;2023-07-20T02:27:19;16.83;;;3.88;;
36797;SDS011;22748;8.426;99.512;2023-07-20T02:29:55;13.20;;;3.97;;
36797;SDS011;22748;8.426;99.512;2023-07-20T02:32:31;14.00;;;4.22;;
36797;SDS011;22748;8.426;99.512;2023-07-20T02:35:14;19.23;;;5.00;;
36797;SDS011;22748;8.426;99.512;2023-07-20T02:37:52;14.35;;;4.45;;
36797;SDS011;22748;8.426;99.512;2023-07-20T02:40:23;25.88;;;4.85;;
36797;SDS011;22748;8.426;99.512;2023-07-20T02:43:00;19.13;;;4.88;;
36797;SDS011;22748;8.426;99.512;2023-07-20T02:45:40;23.45;;;6.22;;
36797;SDS011;22748;8.426;99.512;2023-07-20T02:48:11;27.55;;;5.03;;
36797;SDS011;22748;8.426;99.512;2023-07-20T02:50:46;22.60;;;5.07;;
36797;SDS011;22748;8.426;99.512;2023-07-20T02:53:22;20.38;;;5.20;;
36797;SDS011;22748;8.426;99.512;2023-07-20T02:55:59;23.92;;;5.43;;
36797;SDS011;22748;8.426;99.512;2023-07-20T03:00:59;24.33;;;5.50;;
36797;SDS011;22748;8.426;99.512;2023-07-20T03:03:36;18.73;;;5.05;;
36797;SDS011;22748;8.426;99.512;2023-07-20T03:06:19;41.45;;;7.38;;
36797;SDS011;22748;8.426;99.512;2023-07-20T03:08:50;21.95;;;5.63;;
36797;SDS011;22748;8.426;99.512;2023-07-20T03:11:21;19.40;;;4.85;;
36797;SDS011;22748;8.426;99.512;2023-07-20T03:13:52;19.42;;;4.75;;
36797;SDS011;22748;8.426;99.512;2023-07-20T03:16:23;20.70;;;5.20;;
36797;SDS011;22748;8.426;99.512;2023-07-20T03:19:00;34.15;;;6.95;;
36797;SDS011;22748;8.426;99.512;2023-07-20T03:34:04;24.52;;;5.40;;
36797;SDS011;22748;8.426;99.512;2023-07-20T03:36:36;16.98;;;5.45;;
36797;SDS011;22748;8.426;99.512;2023-07-20T03:39:06;28.30;;;6.15;;
36797;SDS011;22748;8.426;99.512;2023-07-20T03:41:44;18.40;;;5.45;;
36797;SDS011;22748;8.426;99.512;2023-07-20T03:47:37;30.27;;;6.70;;
36797;SDS011;22748;8.426;99.512;2023-07-20T03:50:11;22.05;;;5.63;;
36797;SDS011;22748;8.426;99.512;2023-07-20T03:52:45;27.65;;;6.57;;
36797;SDS011;22748;8.426;99.512;2023-07-20T03:55:15;26.35;;;6.78;;
36797;SDS011;22748;8.426;99.512;2023-07-20T03:57:46;19.88;;;5.47;;
36797;SDS011;22748;8.426;99.512;2023-07-20T04:02:47;20.33;;;5.57;;
36797;SDS011;22748;8.426;99.512;2023-07-20T04:05:23;16.75;;;5.75;;
36797;SDS011;22748;8.426;99.512;2023-07-20T04:07:53;22.25;;;5.25;;
36797;SDS011;22748;8.426;99.512;2023-07-20T04:10:26;19.83;;;5.20;;
36797;SDS011;22748;8.426;99.512;2023-07-20T04:12:56;27.17;;;6.03;;
36797;SDS011;22748;8.426;99.512;2023-07-20T04:15:32;20.38;;;5.50;;
36797;SDS011;22748;8.426;99.512;2023-07-20T04:20:44;21.48;;;6.25;;
36797;SDS011;22748;8.426;99.512;2023-07-20T04:23:16;15.05;;;4.90;;
36797;SDS011;22748;8.426;99.512;2023-07-20T04:25:47;15.02;;;4.78;;
36797;SDS011;22748;8.426;99.512;2023-07-20T04:28:18;16.20;;;5.15;;
36797;SDS011;22748;8.426;99.512;2023-07-20T04:30:49;14.02;;;5.03;;
36797;SDS011;22748;8.426;99.512;2023-07-20T04:33:21;18.17;;;4.63;;
36797;SDS011;22748;8.426;99.512;2023-07-20T04:36:03;11.85;;;4.18;;
36797;SDS011;22748;8.426;99.512;2023-07-20T04:38:48;9.63;;;4.00;;
36797;SDS011;22748;8.426;99.512;2023-07-20T04:43:48;15.07;;;5.65;;
36797;SDS011;22748;8.426;99.512;2023-07-20T04:46:18;12.65;;;5.25;;
36797;SDS011;22748;8.426;99.512;2023-07-20T04:48:49;13.20;;;5.30;;
36797;SDS011;22748;8.426;99.512;2023-07-20T04:51:24;15.05;;;4.93;;
36797;SDS011;22748;8.426;99.512;2023-07-20T04:53:57;10.88;;;4.38;;
36797;SDS011;22748;8.426;99.512;2023-07-20T04:56:30;11.65;;;4.32;;
36797;SDS011;22748;8.426;99.512;2023-07-20T04:59:05;13.38;;;5.03;;
36797;SDS011;22748;8.426;99.512;2023-07-20T05:01:35;12.45;;;5.30;;
36797;SDS011;22748;8.426;99.512;2023-07-20T05:04:09;22.10;;;5.97;;
36797;SDS011;22748;8.426;99.512;2023-07-20T05:06:40;35.10;;;10.90;;
36797;SDS011;22748;8.426;99.512;2023-07-20T05:09:11;55.10;;;18.42;;
36797;SDS011;22748;8.426;99.512;2023-07-20T05:14:14;33.08;;;8.65;;
36797;SDS011;22748;8.426;99.512;2023-07-20T05:16:45;29.73;;;10.30;;
36797;SDS011;22748;8.426;99.512;2023-07-20T05:19:16;25.52;;;8.20;;
36797;SDS011;22748;8.426;99.512;2023-07-20T05:21:48;15.15;;;5.75;;
36797;SDS011;22748;8.426;99.512;2023-07-20T05:24:18;18.23;;;5.90;;
36797;SDS011;22748;8.426;99.512;2023-07-20T05:26:48;26.27;;;6.18;;
36797;SDS011;22748;8.426;99.512;2023-07-20T05:29:19;14.43;;;5.03;;
36797;SDS011;22748;8.426;99.512;2023-07-20T05:31:56;20.13;;;6.40;;
36797;SDS011;22748;8.426;99.512;2023-07-20T05:34:27;19.05;;;5.60;;
36797;SDS011;22748;8.426;99.512;2023-07-20T05:37:00;25.33;;;6.55;;
36797;SDS011;22748;8.426;99.512;2023-07-20T05:39:32;18.17;;;5.95;;
36797;SDS011;22748;8.426;99.512;2023-07-20T05:42:03;19.30;;;5.35;;
36797;SDS011;22748;8.426;99.512;2023-07-20T05:47:04;24.25;;;6.47;;
36797;SDS011;22748;8.426;99.512;2023-07-20T05:52:07;20.25;;;5.68;;
36797;SDS011;22748;8.426;99.512;2023-07-20T05:54:37;21.02;;;5.78;;
36797;SDS011;22748;8.426;99.512;2023-07-20T05:57:08;15.57;;;5.25;;
36797;SDS011;22748;8.426;99.512;2023-07-20T06:02:29;23.27;;;4.90;;
36797;SDS011;22748;8.426;99.512;2023-07-20T06:05:00;24.58;;;5.55;;
36797;SDS011;22748;8.426;99.512;2023-07-20T06:07:33;16.05;;;6.53;;
36797;SDS011;22748;8.426;99.512;2023-07-20T06:10:04;21.17;;;5.78;;
36797;SDS011;22748;8.426;99.512;2023-07-20T06:12:35;25.90;;;7.13;;
36797;SDS011;22748;8.426;99.512;2023-07-20T06:15:16;19.92;;;5.32;;
36797;SDS011;22748;8.426;99.512;2023-07-20T06:17:55;27.38;;;5.82;;
36797;SDS011;22748;8.426;99.512;2023-07-20T06:20:27;25.63;;;6.30;;
36797;SDS011;22748;8.426;99.512;2023-07-20T06:23:00;29.15;;;6.57;;
36797;SDS011;22748;8.426;99.512;2023-07-20T06:25:30;17.67;;;5.28;;
36797;SDS011;22748;8.426;99.512;2023-07-20T06:28:03;23.90;;;11.80;;
36797;SDS011;22748;8.426;99.512;2023-07-20T06:30:33;22.60;;;8.38;;
36797;SDS011;22748;8.426;99.512;2023-07-20T06:33:04;18.23;;;6.25;;
36797;SDS011;22748;8.426;99.512;2023-07-20T06:35:34;17.60;;;5.88;;
36797;SDS011;22748;8.426;99.512;2023-07-20T06:38:06;17.55;;;4.80;;
36797;SDS011;22748;8.426;99.512;2023-07-20T06:40:36;20.13;;;5.38;;
36797;SDS011;22748;8.426;99.512;2023-07-20T06:43:07;18.10;;;5.57;;
36797;SDS011;22748;8.426;99.512;2023-07-20T06:45:37;20.98;;;5.18;;
36797;SDS011;22748;8.426;99.512;2023-07-20T06:48:08;19.67;;;4.80;;
36797;SDS011;22748;8.426;99.512;2023-07-20T06:50:44;14.88;;;4.80;;
36797;SDS011;22748;8.426;99.512;2023-07-20T06:53:18;16.35;;;5.15;;
36797;SDS011;22748;8.426;99.512;2023-07-20T06:55:50;13.70;;;5.00;;
36797;SDS011;22748;8.426;99.512;2023-07-20T07:00:50;16.55;;;4.85;;
36797;SDS011;22748;8.426;99.512;2023-07-20T07:03:21;12.73;;;4.60;;
36797;SDS011;22748;8.426;99.512;2023-07-20T07:08:29;13.60;;;3.97;;
36797;SDS011;22748;8.426;99.512;2023-07-20T07:11:03;17.98;;;4.65;;
36797;SDS011;22748;8.426;99.512;2023-07-20T07:13:33;17.30;;;5.00;;
36797;SDS011;22748;8.426;99.512;2023-07-20T07:16:04;14.18;;;4.75;;
36797;SDS011;22748;8.426;99.512;2023-07-20T07:18:39;17.42;;;4.35;;
36797;SDS011;22748;8.426;99.512;2023-07-20T07:21:10;14.32;;;4.75;;
36797;SDS011;22748;8.426;99.512;2023-07-20T07:23:46;19.67;;;4.88;;
36797;SDS011;22748;8.426;99.512;2023-07-20T07:26:32;15.45;;;5.05;;
36797;SDS011;22748;8.426;99.512;2023-07-20T07:29:02;15.57;;;4.70;;
36797;SDS011;22748;8.426;99.512;2023-07-20T07:31:34;19.50;;;5.10;;
36797;SDS011;22748;8.426;99.512;2023-07-20T07:34:04;18.98;;;5.68;;
36797;SDS011;22748;8.426;99.512;2023-07-20T07:36:35;13.43;;;4.70;;
36797;SDS011;22748;8.426;99.512;2023-07-20T07:39:14;19.75;;;5.38;;
36797;SDS011;22748;8.426;99.512;2023-07-20T07:41:45;23.23;;;6.07;;
36797;SDS011;22748;8.426;99.512;2023-07-20T07:44:16;27.33;;;6.68;;
36797;SDS011;22748;8.426;99.512;2023-07-20T07:46:48;20.05;;;5.75;;
36797;SDS011;22748;8.426;99.512;2023-07-20T07:49:19;12.85;;;4.32;;
36797;SDS011;22748;8.426;99.512;2023-07-20T07:51:49;15.98;;;4.50;;
36797;SDS011;22748;8.426;99.512;2023-07-20T07:54:24;18.60;;;5.43;;
36797;SDS011;22748;8.426;99.512;2023-07-20T07:56:54;13.52;;;4.50;;
36797;SDS011;22748;8.426;99.512;2023-07-20T07:59:25;11.50;;;5.15;;
36797;SDS011;22748;8.426;99.512;2023-07-20T08:01:57;15.77;;;5.15;;
36797;SDS011;22748;8.426;99.512;2023-07-20T08:04:32;11.10;;;4.30;;
36797;SDS011;22748;8.426;99.512;2023-07-20T08:07:05;27.67;;;6.00;;
36797;SDS011;22748;8.426;99.512;2023-07-20T08:12:34;18.63;;;4.97;;
36797;SDS011;22748;8.426;99.512;2023-07-20T08:15:06;14.18;;;4.47;;
36797;SDS011;22748;8.426;99.512;2023-07-20T08:17:37;16.77;;;5.00;;
36797;SDS011;22748;8.426;99.512;2023-07-20T08:20:08;16.70;;;4.40;;
36797;SDS011;22748;8.426;99.512;2023-07-20T08:22:39;14.05;;;4.20;;
36797;SDS011;22748;8.426;99.512;2023-07-20T08:25:21;18.50;;;5.13;;
36797;SDS011;22748;8.426;99.512;2023-07-20T08:27:56;12.35;;;4.40;;
36797;SDS011;22748;8.426;99.512;2023-07-20T08:30:27;13.38;;;4.78;;
36797;SDS011;22748;8.426;99.512;2023-07-20T08:33:12;16.40;;;5.10;;
36797;SDS011;22748;8.426;99.512;2023-07-20T08:35:44;15.63;;;4.97;;
36797;SDS011;22748;8.426;99.512;2023-07-20T08:40:46;14.95;;;4.82;;
36797;SDS011;22748;8.426;99.512;2023-07-20T08:43:17;16.77;;;5.60;;
36797;SDS011;22748;8.426;99.512;2023-07-20T08:45:47;16.93;;;4.87;;
36797;SDS011;22748;8.426;99.512;2023-07-20T08:48:20;13.05;;;4.40;;
36797;SDS011;22748;8.426;99.512;2023-07-20T08:50:51;13.10;;;4.63;;
36797;SDS011;22748;8.426;99.512;2023-07-20T08:53:23;13.93;;;5.45;;
36797;SDS011;22748;8.426;99.512;2023-07-20T08:56:01;10.48;;;4.75;;
36797;SDS011;22748;8.426;99.512;2023-07-20T08:58:34;12.82;;;4.93;;
36797;SDS011;22748;8.426;99.512;2023-07-20T09:01:05;12.77;;;5.03;;
36797;SDS011;22748;8.426;99.512;2023-07-20T09:03:36;17.70;;;5.32;;
36797;SDS011;22748;8.426;99.512;2023-07-20T09:06:09;12.60;;;4.80;;
36797;SDS011;22748;8.426;99.512;2023-07-20T09:08:44;14.27;;;5.18;;
36797;SDS011;22748;8.426;99.512;2023-07-20T09:11:16;13.18;;;4.97;;
36797;SDS011;22748;8.426;99.512;2023-07-20T09:13:48;12.75;;;4.93;;
36797;SDS011;22748;8.426;99.512;2023-07-20T09:16:47;12.88;;;4.70;;
36797;SDS011;22748;8.426;99.512;2023-07-20T09:19:19;13.57;;;5.03;;
36797;SDS011;22748;8.426;99.512;2023-07-20T09:21:49;13.13;;;4.90;;
36797;SDS011;22748;8.426;99.512;2023-07-20T09:24:23;14.13;;;5.50;;
36797;SDS011;22748;8.426;99.512;2023-07-20T09:26:55;18.65;;;5.55;;
36797;SDS011;22748;8.426;99.512;2023-07-20T09:29:27;15.95;;;5.47;;
36797;SDS011;22748;8.426;99.512;2023-07-20T09:32:01;19.02;;;11.85;;
36797;SDS011;22748;8.426;99.512;2023-07-20T09:34:33;22.48;;;7.13;;
36797;SDS011;22748;8.426;99.512;2023-07-20T09:37:04;29.83;;;19.10;;
36797;SDS011;22748;8.426;99.512;2023-07-20T09:42:13;22.50;;;6.05;;
36797;SDS011;22748;8.426;99.512;2023-07-20T09:44:44;18.85;;;4.90;;
36797;SDS011;22748;8.426;99.512;2023-07-20T09:47:15;19.58;;;5.55;;
36797;SDS011;22748;8.426;99.512;2023-07-20T09:49:57;24.30;;;6.05;;
36797;SDS011;22748;8.426;99.512;2023-07-20T09:52:28;22.13;;;5.57;;
36797;SDS011;22748;8.426;99.512;2023-07-20T09:57:32;26.73;;;5.68;;
36797;SDS011;22748;8.426;99.512;2023-07-20T10:00:03;18.58;;;5.20;;
36797;SDS011;22748;8.426;99.512;2023-07-20T10:02:42;34.90;;;6.50;;
36797;SDS011;22748;8.426;99.512;2023-07-20T10:05:14;30.27;;;5.93;;
36797;SDS011;22748;8.426;99.512;2023-07-20T10:07:47;25.70;;;6.43;;
36797;SDS011;22748;8.426;99.512;2023-07-20T10:10:20;22.95;;;6.10;;
36797;SDS011;22748;8.426;99.512;2023-07-20T10:12:53;28.90;;;5.85;;
36797;SDS011;22748;8.426;99.512;2023-07-20T10:15:27;18.40;;;5.10;;
36797;SDS011;22748;8.426;99.512;2023-07-20T10:18:02;31.23;;;7.63;;
36797;SDS011;22748;8.426;99.512;2023-07-20T10:20:37;25.38;;;7.25;;
36797;SDS011;22748;8.426;99.512;2023-07-20T10:23:19;19.13;;;5.60;;
36797;SDS011;22748;8.426;99.512;2023-07-20T10:25:50;21.40;;;5.43;;
36797;SDS011;22748;8.426;99.512;2023-07-20T10:28:26;20.52;;;5.63;;
36797;SDS011;22748;8.426;99.512;2023-07-20T10:30:56;29.77;;;6.72;;
36797;SDS011;22748;8.426;99.512;2023-07-20T10:33:27;27.00;;;7.50;;
36797;SDS011;22748;8.426;99.512;2023-07-20T10:36:00;33.90;;;9.63;;
36797;SDS011;22748;8.426;99.512;2023-07-20T10:38:42;35.53;;;8.23;;
36797;SDS011;22748;8.426;99.512;2023-07-20T10:41:27;33.45;;;6.57;;
36797;SDS011;22748;8.426;99.512;2023-07-20T10:44:01;25.48;;;5.95;;
36797;SDS011;22748;8.426;99.512;2023-07-20T10:46:41;30.90;;;9.10;;
36797;SDS011;22748;8.426;99.512;2023-07-20T10:49:16;23.83;;;7.45;;
36797;SDS011;22748;8.426;99.512;2023-07-20T10:51:56;16.25;;;6.70;;
36797;SDS011;22748;8.426;99.512;2023-07-20T10:57:23;17.15;;;6.68;;
36797;SDS011;22748;8.426;99.512;2023-07-20T11:00:00;14.82;;;5.85;;
36797;SDS011;22748;8.426;99.512;2023-07-20T11:02:44;18.40;;;7.93;;
36797;SDS011;22748;8.426;99.512;2023-07-20T11:08:06;12.68;;;5.57;;
36797;SDS011;22748;8.426;99.512;2023-07-20T11:10:40;13.88;;;5.43;;
36797;SDS011;22748;8.426;99.512;2023-07-20T11:13:25;16.90;;;6.03;;
36797;SDS011;22748;8.426;99.512;2023-07-20T11:16:15;12.93;;;7.07;;
36797;SDS011;22748;8.426;99.512;2023-07-20T11:18:47;16.65;;;6.60;;
36797;SDS011;22748;8.426;99.512;2023-07-20T11:21:19;16.20;;;6.75;;
36797;SDS011;22748;8.426;99.512;2023-07-20T11:23:51;16.92;;;7.68;;
36797;SDS011;22748;8.426;99.512;2023-07-20T11:26:22;14.32;;;6.68;;
36797;SDS011;22748;8.426;99.512;2023-07-20T11:28:53;15.30;;;7.28;;
36797;SDS011;22748;8.426;99.512;2023-07-20T11:31:26;15.27;;;7.40;;
36797;SDS011;22748;8.426;99.512;2023-07-20T11:33:57;13.68;;;6.68;;
36797;SDS011;22748;8.426;99.512;2023-07-20T11:36:42;14.85;;;7.47;;
36797;SDS011;22748;8.426;99.512;2023-07-20T11:39:14;17.30;;;7.20;;
36797;SDS011;22748;8.426;99.512;2023-07-20T11:41:49;14.20;;;7.05;;
36797;SDS011;22748;8.426;99.512;2023-07-20T11:44:21;13.75;;;6.38;;
36797;SDS011;22748;8.426;99.512;2023-07-20T11:47:06;16.58;;;7.38;;
36797;SDS011;22748;8.426;99.512;2023-07-20T11:49:39;16.90;;;5.97;;
36797;SDS011;22748;8.426;99.512;2023-07-20T11:52:13;17.58;;;6.03;;
36797;SDS011;22748;8.426;99.512;2023-07-20T11:54:45;20.33;;;10.02;;
36797;SDS011;22748;8.426;99.512;2023-07-20T11:57:16;15.10;;;9.27;;
36797;SDS011;22748;8.426;99.512;2023-07-20T12:00:03;15.70;;;8.70;;
36797;SDS011;22748;8.426;99.512;2023-07-20T12:02:40;18.48;;;9.55;;
36797;SDS011;22748;8.426;99.512;2023-07-20T12:05:12;21.27;;;9.55;;
36797;SDS011;22748;8.426;99.512;2023-07-20T12:07:44;17.98;;;7.68;;
36797;SDS011;22748;8.426;99.512;2023-07-20T12:10:22;13.65;;;7.00;;
36797;SDS011;22748;8.426;99.512;2023-07-20T12:12:54;19.45;;;8.10;;
36797;SDS011;22748;8.426;99.512;2023-07-20T12:15:31;18.63;;;8.18;;
36797;SDS011;22748;8.426;99.512;2023-07-20T12:20:36;44.28;;;26.13;;
36797;SDS011;22748;8.426;99.512;2023-07-20T12:23:09;33.50;;;19.45;;
36797;SDS011;22748;8.426;99.512;2023-07-20T12:31:15;26.70;;;17.35;;
36797;SDS011;22748;8.426;99.512;2023-07-20T12:33:48;32.72;;;23.63;;
36797;SDS011;22748;8.426;99.512;2023-07-20T12:36:19;34.92;;;24.67;;
36797;SDS011;22748;8.426;99.512;2023-07-20T12:41:20;31.67;;;21.33;;
36797;SDS011;22748;8.426;99.512;2023-07-20T12:46:24;32.45;;;22.75;;
36797;SDS011;22748;8.426;99.512;2023-07-20T12:48:58;32.55;;;20.05;;
36797;SDS011;22748;8.426;99.512;2023-07-20T12:51:29;31.98;;;21.20;;
36797;SDS011;22748;8.426;99.512;2023-07-20T12:54:00;31.25;;;19.85;;
36797;SDS011;22748;8.426;99.512;2023-07-20T12:56:31;25.60;;;17.55;;
36797;SDS011;22748;8.426;99.512;2023-07-20T12:59:01;23.45;;;14.38;;
36797;SDS011;22748;8.426;99.512;2023-07-20T13:01:33;24.05;;;13.02;;
36797;SDS011;22748;8.426;99.512;2023-07-20T13:04:06;25.30;;;11.93;;
36797;SDS011;22748;8.426;99.512;2023-07-20T13:06:37;18.20;;;10.38;;
36797;SDS011;22748;8.426;99.512;2023-07-20T13:09:11;19.55;;;9.20;;
36797;SDS011;22748;8.426;99.512;2023-07-20T13:11:42;18.92;;;9.07;;
36797;SDS011;22748;8.426;99.512;2023-07-20T13:14:13;18.70;;;9.57;;
36797;SDS011;22748;8.426;99.512;2023-07-20T13:19:18;21.23;;;13.45;;
36797;SDS011;22748;8.426;99.512;2023-07-20T13:21:49;22.00;;;11.63;;
36797;SDS011;22748;8.426;99.512;2023-07-20T13:24:20;19.58;;;10.30;;
36797;SDS011;22748;8.426;99.512;2023-07-20T13:26:51;14.23;;;8.50;;
36797;SDS011;22748;8.426;99.512;2023-07-20T13:29:21;21.08;;;8.10;;
36797;SDS011;22748;8.426;99.512;2023-07-20T13:31:52;18.25;;;8.45;;
36797;SDS011;22748;8.426;99.512;2023-07-20T13:34:25;22.63;;;16.15;;
36797;SDS011;22748;8.426;99.512;2023-07-20T13:36:58;22.35;;;9.50;;
36797;SDS011;22748;8.426;99.512;2023-07-20T13:39:30;15.00;;;7.55;;
36797;SDS011;22748;8.426;99.512;2023-07-20T13:42:00;13.93;;;8.00;;
36797;SDS011;22748;8.426;99.512;2023-07-20T13:44:31;15.90;;;7.60;;
36797;SDS011;22748;8.426;99.512;2023-07-20T13:47:02;14.88;;;7.85;;
36797;SDS011;22748;8.426;99.512;2023-07-20T13:49:37;16.50;;;8.82;;
36797;SDS011;22748;8.426;99.512;2023-07-20T13:52:08;20.15;;;9.77;;
36797;SDS011;22748;8.426;99.512;2023-07-20T13:54:40;16.05;;;9.45;;
36797;SDS011;22748;8.426;99.512;2023-07-20T13:57:14;16.33;;;9.20;;
36797;SDS011;22748;8.426;99.512;2023-07-20T13:59:44;13.35;;;8.88;;
36797;SDS011;22748;8.426;99.512;2023-07-20T14:02:15;15.38;;;8.93;;
36797;SDS011;22748;8.426;99.512;2023-07-20T14:07:18;21.08;;;9.40;;
36797;SDS011;22748;8.426;99.512;2023-07-20T14:09:50;18.02;;;10.02;;
36797;SDS011;22748;8.426;99.512;2023-07-20T14:12:33;15.85;;;9.68;;
36797;SDS011;22748;8.426;99.512;2023-07-20T14:17:32;18.35;;;9.98;;
36797;SDS011;22748;8.426;99.512;2023-07-20T14:22:37;16.48;;;8.85;;
36797;SDS011;22748;8.426;99.512;2023-07-20T14:25:09;17.67;;;8.90;;
36797;SDS011;22748;8.426;99.512;2023-07-20T14:27:39;16.58;;;9.00;;
36797;SDS011;22748;8.426;99.512;2023-07-20T14:30:11;16.27;;;8.77;;
36797;SDS011;22748;8.426;99.512;2023-07-20T14:32:42;22.00;;;9.38;;
36797;SDS011;22748;8.426;99.512;2023-07-20T14:35:17;18.90;;;8.40;;
36797;SDS011;22748;8.426;99.512;2023-07-20T14:37:49;18.85;;;10.65;;
36797;SDS011;22748;8.426;99.512;2023-07-20T14:40:20;22.08;;;14.00;;
36797;SDS011;22748;8.426;99.512;2023-07-20T14:42:53;20.55;;;10.52;;
36797;SDS011;22748;8.426;99.512;2023-07-20T14:45:24;17.52;;;10.18;;
36797;SDS011;22748;8.426;99.512;2023-07-20T14:47:56;22.83;;;11.75;;
36797;SDS011;22748;8.426;99.512;2023-07-20T14:53:14;20.48;;;12.80;;
36797;SDS011;22748;8.426;99.512;2023-07-20T14:55:46;18.67;;;11.00;;
36797;SDS011;22748;8.426;99.512;2023-07-20T14:58:19;16.35;;;10.32;;
36797;SDS011;22748;8.426;99.512;2023-07-20T15:00:51;20.15;;;10.80;;
36797;SDS011;22748;8.426;99.512;2023-07-20T15:03:24;22.63;;;9.88;;
36797;SDS011;22748;8.426;99.512;2023-07-20T15:05:59;20.55;;;9.60;;
36797;SDS011;22748;8.426;99.512;2023-07-20T15:08:33;19.88;;;10.75;;
36797;SDS011;22748;8.426;99.512;2023-07-20T15:11:04;17.40;;;8.90;;
36797;SDS011;22748;8.426;99.512;2023-07-20T15:13:36;15.45;;;8.95;;
36797;SDS011;22748;8.426;99.512;2023-07-20T15:16:10;16.30;;;9.20;;
36797;SDS011;22748;8.426;99.512;2023-07-20T15:18:52;15.68;;;8.77;;
36797;SDS011;22748;8.426;99.512;2023-07-20T15:21:27;16.35;;;8.77;;
36797;SDS011;22748;8.426;99.512;2023-07-20T15:23:59;18.08;;;8.50;;
36797;SDS011;22748;8.426;99.512;2023-07-20T15:26:36;17.98;;;9.00;;
36797;SDS011;22748;8.426;99.512;2023-07-20T15:29:08;17.25;;;9.40;;
36797;SDS011;22748;8.426;99.512;2023-07-20T15:31:39;15.43;;;9.02;;
36797;SDS011;22748;8.426;99.512;2023-07-20T15:34:09;14.85;;;9.23;;
36797;SDS011;22748;8.426;99.512;2023-07-20T15:36:45;16.20;;;8.52;;
36797;SDS011;22748;8.426;99.512;2023-07-20T15:39:16;14.13;;;8.18;;
36797;SDS011;22748;8.426;99.512;2023-07-20T15:41:47;17.88;;;8.90;;
36797;SDS011;22748;8.426;99.512;2023-07-20T15:44:18;17.00;;;8.43;;
36797;SDS011;22748;8.426;99.512;2023-07-20T15:46:49;17.77;;;8.93;;
36797;SDS011;22748;8.426;99.512;2023-07-20T15:49:20;14.15;;;8.05;;
36797;SDS011;22748;8.426;99.512;2023-07-20T15:51:53;16.67;;;8.77;;
36797;SDS011;22748;8.426;99.512;2023-07-20T15:54:30;17.15;;;8.95;;
36797;SDS011;22748;8.426;99.512;2023-07-20T15:57:05;14.88;;;7.72;;
36797;SDS011;22748;8.426;99.512;2023-07-20T15:59:37;13.95;;;7.88;;
36797;SDS011;22748;8.426;99.512;2023-07-20T16:02:08;13.73;;;7.45;;
36797;SDS011;22748;8.426;99.512;2023-07-20T16:04:41;13.73;;;7.75;;
36797;SDS011;22748;8.426;99.512;2023-07-20T16:07:15;14.30;;;7.63;;
36797;SDS011;22748;8.426;99.512;2023-07-20T16:09:46;14.63;;;7.90;;
36797;SDS011;22748;8.426;99.512;2023-07-20T16:12:18;21.88;;;7.93;;
36797;SDS011;22748;8.426;99.512;2023-07-20T16:14:52;14.50;;;7.72;;
36797;SDS011;22748;8.426;99.512;2023-07-20T16:19:54;16.08;;;7.88;;
36797;SDS011;22748;8.426;99.512;2023-07-20T16:22:26;11.82;;;7.80;;
36797;SDS011;22748;8.426;99.512;2023-07-20T16:24:58;17.77;;;8.20;;
36797;SDS011;22748;8.426;99.512;2023-07-20T16:27:29;15.63;;;8.57;;
36797;SDS011;22748;8.426;99.512;2023-07-20T16:30:00;16.92;;;8.60;;
36797;SDS011;22748;8.426;99.512;2023-07-20T16:32:32;16.42;;;8.63;;
36797;SDS011;22748;8.426;99.512;2023-07-20T16:35:03;14.70;;;8.35;;
36797;SDS011;22748;8.426;99.512;2023-07-20T16:37:38;15.77;;;8.57;;
36797;SDS011;22748;8.426;99.512;2023-07-20T16:40:09;15.70;;;8.52;;
36797;SDS011;22748;8.426;99.512;2023-07-20T16:42:42;12.00;;;8.27;;
36797;SDS011;22748;8.426;99.512;2023-07-20T16:45:13;15.57;;;8.15;;
36797;SDS011;22748;8.426;99.512;2023-07-20T16:47:44;16.45;;;8.20;;